TONO2: Salt Fork Arkansas R., Tonkawa, OK

Data processed at Sat Dec 09 2017 23:36


All information presented herein is the property of the government of the United States of America and may be revised or deleted at any time without prior notice.
Dissemination of this information without the expressed written consent of the Public Affairs Office, Tulsa District U.S. Army Corps of Engineers is strictly prohibited.
These data are gathered electronically and, as presented, have not undergone any form of quality control. These data are not guaranteed to be valid or correct.
Go to home page.
Go to station list.

Upstream stations:

Downstream station:
Previous Day
Next Day
Current Day
    
SHEF ID:       TONO2     Salt Fork Arkansas River at Tonk
STATION TYPE:  

               PRECIP     STAGE  STAGE(2)  RIV-FLOW  BAT-LOAD
                   in        ft        ft       cfs      volt
              Ccp-Rev   Ccp-Rev   Ccp-Rev   Ccp-Rev   Ccp-Rev
(US/Central)
12/07 00:00      0.00      3.63      3.54       186     12.57
12/07 01:00      0.00      3.61      3.56       181     12.49
12/07 02:00      0.00      3.61      3.56       181     12.49
12/07 03:00      0.00      3.58      3.51       173     12.49
12/07 04:00      0.00      3.58      3.56       173     12.41
12/07 05:00      0.00      3.56      3.54       168     12.41
12/07 06:00      0.00      3.55      3.57       165     12.41
12/07 07:00      0.00      3.54      3.54       163     12.33
12/07 08:00      0.00      3.52      3.48       158     12.25
12/07 09:00      0.00      3.49      3.44       151      ----
12/07 10:00      0.00      3.47      3.51       146     12.65
12/07 11:00      0.00      3.46      3.45       144     14.24
12/07 12:00      0.00      3.45      3.42       142     14.00
12/07 13:00      0.00      3.46      3.46       144     14.08
12/07 14:00      0.00      3.44      3.41       139     14.00
12/07 15:00      0.00      3.44      3.39       139     13.44
12/07 16:00      0.00      3.42      3.40       135     13.84
12/07 17:00      0.00      3.43      3.42       137     13.53
12/07 18:00      0.00      3.42      3.34       135     13.13
12/07 19:00      0.00      3.43      3.37       137     12.73
12/07 20:00      0.00      3.42      3.33       135     12.65
12/07 21:00      0.00      3.41      3.44       133     12.65
12/07 22:00      0.00      3.42      3.35       135     12.57
12/07 23:00      0.00      3.42      3.37       135     12.57